createdAt,value
2019-05-14T00:00:32.140Z,102589.50
2019-05-14T00:03:02.314Z,102590.05
2019-05-14T00:05:32.177Z,102592.02
2019-05-14T00:08:02.293Z,102590.88
2019-05-14T00:10:32.169Z,102588.38
2019-05-14T00:13:01.679Z,102581.84
2019-05-14T00:15:32.223Z,102583.41
2019-05-14T00:18:01.274Z,102578.70
2019-05-14T00:20:31.407Z,102590.36
2019-05-14T00:23:01.407Z,102583.38
2019-05-14T00:25:31.339Z,102584.41
2019-05-14T00:28:01.329Z,102578.82
2019-05-14T00:30:31.613Z,102580.34
2019-05-14T00:33:01.205Z,102583.68
2019-05-14T00:35:32.039Z,102582.53
2019-05-14T00:38:01.320Z,102583.17
2019-05-14T00:40:31.483Z,102582.45
2019-05-14T00:43:02.436Z,102577.30
2019-05-14T00:45:31.297Z,102572.06
2019-05-14T00:48:01.554Z,102582.42
2019-05-14T00:50:31.705Z,102584.29
2019-05-14T00:53:01.993Z,102583.11
2019-05-14T00:55:31.634Z,102578.78
2019-05-14T00:58:02.375Z,102586.48
2019-05-14T01:00:31.322Z,102583.58
2019-05-14T01:03:01.900Z,102575.67
2019-05-14T01:05:32.242Z,102580.57
2019-05-14T01:08:01.894Z,102581.08
2019-05-14T01:10:31.326Z,102567.86
2019-05-14T01:13:01.147Z,102578.16
2019-05-14T01:15:32.173Z,102571.63
2019-05-14T01:18:02.223Z,102571.74
2019-05-14T01:20:31.942Z,102568.41
2019-05-14T01:23:02.309Z,102560.59
2019-05-14T01:25:31.728Z,102562.03
2019-05-14T01:28:02.200Z,102563.11
2019-05-14T01:30:31.973Z,102561.87
2019-05-14T01:33:01.721Z,102559.30
2019-05-14T01:35:31.640Z,102559.87
2019-05-14T01:38:02.590Z,102545.72
2019-05-14T01:40:31.548Z,102547.05
2019-05-14T01:43:02.400Z,102542.58
2019-05-14T01:45:31.670Z,102542.09
2019-05-14T01:48:01.287Z,102536.33
2019-05-14T01:50:32.142Z,102531.02
2019-05-14T01:53:01.267Z,102519.98
2019-05-14T01:55:32.287Z,102517.80
2019-05-14T01:58:02.393Z,102510.76
2019-05-14T02:00:31.415Z,102502.41
2019-05-14T02:03:01.878Z,102507.33
2019-05-14T02:05:31.097Z,102507.89
2019-05-14T02:08:02.580Z,102507.84
2019-05-14T02:10:31.650Z,102505.26
2019-05-14T02:13:01.979Z,102508.41
2019-05-14T02:15:39.037Z,102506.59
2019-05-14T02:18:02.285Z,102502.20
2019-05-14T02:20:32.104Z,102502.20
2019-05-14T02:23:01.530Z,102506.14
2019-05-14T02:25:31.959Z,102505.26
2019-05-14T02:28:01.442Z,102509.25
2019-05-14T02:30:45.835Z,102504.41
2019-05-14T02:33:00.661Z,102507.92
2019-05-14T02:35:29.897Z,102505.69
2019-05-14T02:37:59.595Z,102500.37
2019-05-14T02:40:29.448Z,102503.84
2019-05-14T02:42:59.267Z,102502.41
2019-05-14T02:45:30.429Z,102508.47
2019-05-14T02:48:00.306Z,102497.66
2019-05-14T02:50:29.696Z,102501.00
2019-05-14T02:52:59.804Z,102499.50
2019-05-14T02:55:29.885Z,102493.66
2019-05-14T02:57:59.807Z,102490.49
2019-05-14T03:00:30.074Z,102498.81
2019-05-14T03:02:59.892Z,102503.67
2019-05-14T03:05:29.514Z,102508.03
2019-05-14T03:07:59.788Z,102511.06
2019-05-14T03:10:30.217Z,102506.11
2019-05-14T03:12:59.326Z,102513.09
2019-05-14T03:15:29.105Z,102503.27
2019-05-14T03:17:59.878Z,102509.86
2019-05-14T03:20:29.096Z,102500.61
2019-05-14T03:23:05.134Z,102498.91
2019-05-14T03:25:30.170Z,102498.19
2019-05-14T03:27:59.897Z,102497.42
2019-05-14T03:30:32.362Z,102490.49
2019-05-14T03:33:02.954Z,102492.78
2019-05-14T03:35:41.157Z,102493.75
2019-05-14T03:38:00.534Z,102489.39
2019-05-14T03:40:29.591Z,102489.91
2019-05-14T03:42:59.917Z,102489.97
2019-05-14T03:45:29.946Z,102489.99
2019-05-14T03:47:59.148Z,102486.45
2019-05-14T03:50:29.753Z,102495.82
2019-05-14T03:52:59.372Z,102490.95
2019-05-14T03:55:29.318Z,102490.14
2019-05-14T03:57:59.447Z,102487.56
2019-05-14T04:00:50.281Z,102493.41
2019-05-14T04:03:19.973Z,102494.80
2019-05-14T04:05:49.984Z,102493.92
2019-05-14T04:08:21.279Z,102491.20
2019-05-14T04:10:54.312Z,102482.75
2019-05-14T04:13:23.592Z,102487.48
2019-05-14T04:15:55.505Z,102489.54
2019-05-14T04:18:29.078Z,102484.50
2019-05-14T04:20:59.572Z,102481.66
2019-05-14T04:23:29.826Z,102487.63
2019-05-14T04:26:00.632Z,102485.64
2019-05-14T04:28:31.105Z,102476.57
2019-05-14T04:30:59.990Z,102477.59
2019-05-14T04:33:30.413Z,102476.96
2019-05-14T04:36:00.218Z,102470.52
2019-05-14T04:38:29.973Z,102463.34
2019-05-14T04:40:59.983Z,102461.82
2019-05-14T04:43:29.605Z,102455.36
2019-05-14T04:45:59.193Z,102459.94
2019-05-14T04:48:36.487Z,102460.98
2019-05-14T04:51:00.400Z,102461.14
2019-05-14T04:53:30.882Z,102463.02
2019-05-14T04:56:00.251Z,102463.95
2019-05-14T04:58:29.952Z,102461.78
2019-05-14T05:01:00.471Z,102466.73
2019-05-14T05:03:31.535Z,102457.99
2019-05-14T05:05:59.322Z,102457.14
2019-05-14T05:08:30.391Z,102456.33
2019-05-14T05:11:00.022Z,102455.94
2019-05-14T05:13:29.419Z,102461.36
2019-05-14T05:15:59.405Z,102460.99
2019-05-14T05:18:29.384Z,102466.94
2019-05-14T05:20:58.572Z,102463.89
2019-05-14T05:23:28.226Z,102464.73
2019-05-14T05:25:58.543Z,102469.95
2019-05-14T05:28:28.321Z,102463.91
2019-05-14T05:30:58.626Z,102469.34
2019-05-14T05:33:29.413Z,102468.30
2019-05-14T05:35:59.309Z,102466.46
2019-05-14T05:38:29.309Z,102464.30
2019-05-14T05:41:00.201Z,102460.16
2019-05-14T05:43:28.736Z,102464.80
2019-05-14T05:45:59.259Z,102452.64
2019-05-14T05:48:28.523Z,102450.84
2019-05-14T05:50:59.063Z,102455.39
2019-05-14T05:53:28.701Z,102452.57
2019-05-14T05:55:59.316Z,102447.38
2019-05-14T05:58:29.913Z,102446.86
2019-05-14T06:00:59.020Z,102447.96
2019-05-14T06:03:30.031Z,102449.14
2019-05-14T06:05:59.491Z,102451.98
2019-05-14T06:08:28.341Z,102456.17
2019-05-14T06:10:59.122Z,102454.99
2019-05-14T06:13:28.677Z,102455.15
2019-05-14T06:15:59.103Z,102449.35
2019-05-14T06:18:28.571Z,102443.25
2019-05-14T06:20:58.595Z,102435.94
2019-05-14T06:23:28.435Z,102433.87
2019-05-14T06:25:59.793Z,102431.08
2019-05-14T06:28:32.910Z,102431.59
2019-05-14T06:30:59.043Z,102423.09
2019-05-14T06:33:28.613Z,102424.45
2019-05-14T06:35:59.123Z,102425.22
2019-05-14T06:38:29.519Z,102419.17
2019-05-14T06:40:59.321Z,102415.21
2019-05-14T06:43:28.821Z,102412.78
2019-05-14T06:45:58.525Z,102414.62
2019-05-14T06:48:33.613Z,102408.81
2019-05-14T06:50:58.328Z,102413.59
2019-05-14T06:53:29.058Z,102422.57
2019-05-14T06:55:58.724Z,102416.66
2019-05-14T06:58:29.837Z,102411.64
2019-05-14T07:00:58.795Z,102410.31
2019-05-14T07:03:28.141Z,102406.11
2019-05-14T07:05:59.354Z,102406.69
2019-05-14T07:08:28.467Z,102412.44
2019-05-14T07:10:59.189Z,102413.41
2019-05-14T07:13:29.175Z,102413.25
2019-05-14T07:15:58.544Z,102410.09
2019-05-14T07:18:30.233Z,102413.41
2019-05-14T07:20:58.853Z,102415.16
2019-05-14T07:23:28.906Z,102413.86
2019-05-14T07:25:58.948Z,102417.22
2019-05-14T07:28:28.907Z,102419.00
2019-05-14T07:30:59.249Z,102429.51
2019-05-14T07:33:29.376Z,102417.52
2019-05-14T07:35:59.438Z,102416.23
2019-05-14T07:38:28.564Z,102407.73
2019-05-14T07:40:58.539Z,102411.20
2019-05-14T07:43:28.661Z,102414.03
2019-05-14T07:45:58.234Z,102416.69
2019-05-14T07:48:28.784Z,102412.99
2019-05-14T07:50:59.915Z,102410.69
2019-05-14T07:53:36.036Z,102414.13
2019-05-14T07:55:59.190Z,102410.40
2019-05-14T07:58:28.343Z,102403.09
2019-05-14T08:00:58.645Z,102411.84
2019-05-14T08:03:28.556Z,102406.48
2019-05-14T08:05:58.897Z,102402.30
2019-05-14T08:08:29.263Z,102400.63
2019-05-14T08:10:59.209Z,102394.62
2019-05-14T08:13:28.474Z,102393.98
2019-05-14T08:15:58.399Z,102390.69
2019-05-14T08:18:29.104Z,102393.86
2019-05-14T08:20:59.313Z,102392.75
2019-05-14T08:23:28.191Z,102391.00
2019-05-14T08:25:58.720Z,102390.60
2019-05-14T08:28:28.990Z,102390.53
2019-05-14T08:30:58.455Z,102390.41
2019-05-14T08:33:29.089Z,102399.94
2019-05-14T08:35:58.239Z,102397.89
2019-05-14T08:38:28.481Z,102406.77
2019-05-14T08:40:58.930Z,102398.51
2019-05-14T08:43:29.121Z,102390.98
2019-05-14T08:45:58.761Z,102400.44
2019-05-14T08:48:29.670Z,102400.42
2019-05-14T08:50:58.730Z,102389.89
2019-05-14T08:53:28.803Z,102377.34
2019-05-14T08:55:58.798Z,102379.58
2019-05-14T08:58:30.077Z,102372.69
2019-05-14T09:00:58.767Z,102375.59
2019-05-14T09:03:28.829Z,102363.67
2019-05-14T09:06:00.580Z,102349.84
2019-05-14T09:08:28.488Z,102347.12
2019-05-14T09:10:59.019Z,102346.35
2019-05-14T09:13:28.959Z,102340.02
2019-05-14T09:15:58.266Z,102334.74
2019-05-14T09:18:29.093Z,102331.63
2019-05-14T09:20:58.174Z,102343.42
2019-05-14T09:23:28.689Z,102333.97
2019-05-14T09:25:58.804Z,102342.63
2019-05-14T09:28:28.466Z,102335.70
2019-05-14T09:30:59.606Z,102333.99
2019-05-14T09:33:29.624Z,102337.64
2019-05-14T09:36:13.593Z,102333.89
2019-05-14T09:38:41.640Z,102330.19
2019-05-14T09:41:08.258Z,102334.73
2019-05-14T09:43:29.186Z,102332.30
2019-05-14T09:45:58.782Z,102336.29
2019-05-14T09:48:28.622Z,102333.99
2019-05-14T09:50:58.642Z,102333.35
2019-05-14T09:53:28.878Z,102330.81
2019-05-14T09:55:58.392Z,102326.50
2019-05-14T09:58:28.251Z,102329.23
2019-05-14T10:00:59.121Z,102328.92
2019-05-14T10:03:27.366Z,102338.25
2019-05-14T10:05:58.740Z,102334.02
2019-05-14T10:08:28.413Z,102337.30
2019-05-14T10:11:00.039Z,102334.48
2019-05-14T10:13:28.190Z,102334.92
2019-05-14T10:15:58.879Z,102328.72
2019-05-14T10:18:28.505Z,102326.74
2019-05-14T10:20:59.054Z,102317.53
2019-05-14T10:23:28.373Z,102326.53
2019-05-14T10:25:58.084Z,102321.10
2019-05-14T10:28:28.882Z,102320.42
2019-05-14T10:30:59.978Z,102308.80
2019-05-14T10:33:28.822Z,102297.51
2019-05-14T10:35:58.859Z,102296.69
2019-05-14T10:38:29.609Z,102292.14
2019-05-14T10:40:58.396Z,102278.38
2019-05-14T10:43:28.892Z,102284.71
2019-05-14T10:45:58.108Z,102276.91
2019-05-14T10:48:28.963Z,102270.20
2019-05-14T10:51:02.949Z,102263.14
2019-05-14T10:53:28.970Z,102260.56
2019-05-14T10:55:58.392Z,102268.04
2019-05-14T10:58:29.050Z,102260.86
2019-05-14T11:00:58.921Z,102264.59
2019-05-14T11:03:30.093Z,102266.44
2019-05-14T11:05:58.752Z,102264.09
2019-05-14T11:08:29.668Z,102264.70
2019-05-14T11:11:03.780Z,102260.86
2019-05-14T11:13:29.195Z,102254.77
2019-05-14T11:15:59.599Z,102245.74
2019-05-14T11:18:29.066Z,102233.77
2019-05-14T11:21:18.049Z,102236.16
2019-05-14T11:23:29.850Z,102243.86
2019-05-14T11:25:58.756Z,102241.70
2019-05-14T11:28:28.552Z,102237.34
2019-05-14T11:30:57.498Z,102241.06
2019-05-14T11:33:26.086Z,102230.58
2019-05-14T11:35:54.646Z,102229.44
2019-05-14T11:38:33.797Z,102228.79
2019-05-14T11:40:53.542Z,102222.10
2019-05-14T11:43:22.125Z,102218.39
2019-05-14T11:45:50.841Z,102202.09
2019-05-14T11:48:19.563Z,102207.26
2019-05-14T11:50:49.224Z,102204.45
2019-05-14T11:53:20.064Z,102193.58
2019-05-14T11:55:50.282Z,102199.70
2019-05-14T11:58:20.866Z,102200.66
2019-05-14T12:00:49.250Z,102193.66
2019-05-14T12:03:19.674Z,102186.72
2019-05-14T12:05:49.533Z,102177.08
2019-05-14T12:08:18.742Z,102171.29
2019-05-14T12:10:47.407Z,102169.75
2019-05-14T12:13:15.995Z,102174.73
2019-05-14T12:15:44.570Z,102165.98
2019-05-14T12:18:13.171Z,102161.17
2019-05-14T12:20:41.740Z,102152.84
2019-05-14T12:23:10.337Z,102153.11
2019-05-14T12:25:38.918Z,102154.93
2019-05-14T12:28:13.245Z,102155.88
2019-05-14T12:30:39.456Z,102154.45
2019-05-14T12:33:07.952Z,102160.34
2019-05-14T12:35:39.962Z,102153.62
2019-05-14T12:38:06.937Z,102157.38
2019-05-14T12:40:38.112Z,102160.06
2019-05-14T12:43:05.861Z,102154.31
2019-05-14T12:45:34.424Z,102151.78
2019-05-14T12:48:03.061Z,102150.00
2019-05-14T12:50:31.620Z,102145.28
2019-05-14T12:53:00.185Z,102139.77
2019-05-14T12:55:28.839Z,102133.59
2019-05-14T12:57:59.715Z,102129.45
2019-05-14T13:00:27.708Z,102139.25
2019-05-14T13:02:58.518Z,102127.23
2019-05-14T13:05:29.050Z,102127.54
2019-05-14T13:07:57.979Z,102122.31
2019-05-14T13:10:29.231Z,102121.01
2019-05-14T13:12:58.818Z,102126.01
2019-05-14T13:15:28.683Z,102128.55
2019-05-14T13:17:57.519Z,102116.62
2019-05-14T13:20:26.087Z,102112.75
2019-05-14T13:22:54.675Z,102113.80
2019-05-14T13:25:23.247Z,102107.91
2019-05-14T13:27:51.790Z,102104.61
2019-05-14T13:30:20.733Z,102094.98
2019-05-14T13:32:49.343Z,102105.13
2019-05-14T13:35:19.664Z,102092.66
2019-05-14T13:37:49.013Z,102094.95
2019-05-14T13:40:21.279Z,102086.84
2019-05-14T13:42:49.179Z,102075.77
2019-05-14T13:45:19.148Z,102078.39
2019-05-14T13:47:48.950Z,102074.67
2019-05-14T13:50:19.654Z,102075.17
2019-05-14T13:53:02.038Z,102070.33
2019-05-14T13:55:19.438Z,102069.77
2019-05-14T13:57:48.755Z,102056.03
2019-05-14T14:00:19.974Z,102057.98
2019-05-14T14:02:48.475Z,102044.85
2019-05-14T14:05:19.879Z,102047.48
2019-05-14T14:07:48.611Z,102044.14
2019-05-14T14:10:17.532Z,102045.37
2019-05-14T14:12:49.292Z,102048.41
2019-05-14T14:15:16.724Z,102040.91
2019-05-14T14:17:45.366Z,102040.75
2019-05-14T14:20:14.186Z,102037.75
2019-05-14T14:22:42.754Z,102038.36
2019-05-14T14:25:11.635Z,102034.84
2019-05-14T14:27:41.182Z,102030.37
2019-05-14T14:30:10.973Z,102027.52
2019-05-14T14:32:40.511Z,102031.16
2019-05-14T14:35:09.868Z,102026.90
2019-05-14T14:37:39.617Z,102018.70
2019-05-14T14:40:10.724Z,102013.19
2019-05-14T14:42:40.474Z,101994.09
2019-05-14T14:45:10.097Z,101996.98
2019-05-14T14:47:39.466Z,101993.70
2019-05-14T14:50:09.155Z,101991.04
2019-05-14T14:52:37.767Z,102004.47
2019-05-14T14:55:07.230Z,102001.44
2019-05-14T14:57:35.987Z,101996.93
2019-05-14T15:00:09.557Z,101992.95
2019-05-14T15:02:36.845Z,101985.25
2019-05-14T15:05:13.830Z,101985.89
2019-05-14T15:07:40.741Z,101988.58
2019-05-14T15:10:09.994Z,101985.95
2019-05-14T15:12:39.931Z,101975.54
2019-05-14T15:15:22.735Z,101972.80
2019-05-14T15:17:51.300Z,101981.20
2019-05-14T15:20:19.885Z,101985.38
2019-05-14T15:22:49.391Z,101973.86
2019-05-14T15:25:18.678Z,101983.41
2019-05-14T15:27:49.084Z,101971.66
2019-05-14T15:30:18.215Z,101979.97
2019-05-14T15:32:51.037Z,101971.41
2019-05-14T15:35:18.985Z,101968.61
2019-05-14T15:37:48.791Z,101962.23
2019-05-14T15:40:22.037Z,101954.22
2019-05-14T15:42:49.783Z,101952.48
2019-05-14T15:45:18.349Z,101949.06
2019-05-14T15:47:48.570Z,101947.22
2019-05-14T15:50:19.984Z,101951.14
2019-05-14T15:52:48.745Z,101955.20
2019-05-14T15:55:18.321Z,101950.33
2019-05-14T15:57:47.174Z,101953.55
2019-05-14T16:00:16.225Z,101953.08
2019-05-14T16:02:44.806Z,101949.98
2019-05-14T16:05:13.590Z,101941.14
2019-05-14T16:07:42.161Z,101942.73
2019-05-14T16:10:11.257Z,101934.72
2019-05-14T16:12:40.316Z,101930.94
2019-05-14T16:15:10.077Z,101932.00
2019-05-14T16:17:47.543Z,101932.27
2019-05-14T16:20:09.704Z,101933.03
2019-05-14T16:22:39.890Z,101928.21
2019-05-14T16:25:09.987Z,101920.71
2019-05-14T16:27:39.542Z,101920.63
2019-05-14T16:30:10.181Z,101920.98
2019-05-14T16:32:39.720Z,101927.19
2019-05-14T16:35:09.333Z,101931.14
2019-05-14T16:37:39.204Z,101919.72
2019-05-14T16:40:08.835Z,101918.98
2019-05-14T16:42:39.542Z,101919.59
2019-05-14T16:45:08.853Z,101917.75
2019-05-14T16:47:39.934Z,101923.91
2019-05-14T16:50:09.868Z,101921.06
2019-05-14T16:52:42.426Z,101915.33
2019-05-14T16:55:22.568Z,101925.78
2019-05-14T16:57:39.204Z,101921.63
2019-05-14T17:00:09.833Z,101922.86
2019-05-14T17:02:38.857Z,101916.48
2019-05-14T17:05:09.147Z,101919.30
2019-05-14T17:07:38.578Z,101922.63
2019-05-14T17:10:08.484Z,101929.00
2019-05-14T17:12:51.713Z,101922.00
2019-05-14T17:15:09.673Z,101917.94
2019-05-14T17:17:38.540Z,101926.62
2019-05-14T17:20:08.556Z,101923.67
2019-05-14T17:22:39.657Z,101919.38
2019-05-14T17:25:09.376Z,101915.56
2019-05-14T17:27:39.341Z,101908.56
2019-05-14T17:30:09.053Z,101913.86
2019-05-14T17:32:39.109Z,101911.01
2019-05-14T17:35:08.589Z,101912.73
2019-05-14T17:37:39.586Z,101912.00
2019-05-14T17:40:09.406Z,101915.52
2019-05-14T17:42:39.353Z,101911.35
2019-05-14T17:45:09.709Z,101908.89
2019-05-14T17:47:39.225Z,101909.50
2019-05-14T17:50:08.983Z,101910.70
2019-05-14T17:52:42.904Z,101905.29
2019-05-14T17:55:12.218Z,101906.62
2019-05-14T17:57:46.717Z,101911.90
2019-05-14T18:00:11.019Z,101901.56
2019-05-14T18:02:39.630Z,101906.45
2019-05-14T18:05:09.738Z,101902.74
2019-05-14T18:07:38.553Z,101907.63
2019-05-14T18:10:08.863Z,101907.25
2019-05-14T18:12:39.698Z,101902.89
2019-05-14T18:15:08.911Z,101898.81
2019-05-14T18:17:39.289Z,101899.66
2019-05-14T18:20:08.660Z,101895.48
2019-05-14T18:22:42.080Z,101898.15
2019-05-14T18:25:08.210Z,101901.78
2019-05-14T18:27:39.301Z,101903.58
2019-05-14T18:30:09.367Z,101897.80
2019-05-14T18:32:39.151Z,101899.72
2019-05-14T18:35:09.392Z,101899.03
2019-05-14T18:37:39.102Z,101894.30
2019-05-14T18:40:09.247Z,101894.96
2019-05-14T18:42:39.432Z,101892.95
2019-05-14T18:45:09.677Z,101888.22
2019-05-14T18:47:40.190Z,101894.86
2019-05-14T18:50:10.499Z,101896.11
2019-05-14T18:52:40.773Z,101894.27
2019-05-14T18:56:19.398Z,101898.88
2019-05-14T18:58:38.643Z,101892.72
2019-05-14T19:01:08.587Z,101891.51
2019-05-14T19:03:39.961Z,101887.16
2019-05-14T19:06:10.156Z,101878.95
2019-05-14T19:08:41.465Z,101880.27
2019-05-14T19:11:12.880Z,101877.03
2019-05-14T19:13:45.241Z,101875.77
2019-05-14T19:16:16.579Z,101865.53
2019-05-14T19:18:48.901Z,101872.72
2019-05-14T19:21:20.983Z,101869.22
2019-05-14T19:23:52.605Z,101869.59
2019-05-14T19:26:33.437Z,101876.12
2019-05-14T19:28:58.165Z,101881.69
2019-05-14T19:31:30.160Z,101878.15
2019-05-14T19:34:02.059Z,101880.16
2019-05-14T19:37:29.058Z,101879.38
2019-05-14T19:40:01.403Z,101878.59
2019-05-14T19:42:33.269Z,101881.16
2019-05-14T19:45:05.032Z,101874.92
2019-05-14T19:47:36.685Z,101879.89
2019-05-14T19:50:11.706Z,101875.06
2019-05-14T19:52:43.532Z,101869.77
2019-05-14T19:55:15.672Z,101872.51
2019-05-14T19:58:40.367Z,101876.08
2019-05-14T20:01:11.178Z,101869.91
2019-05-14T20:03:41.620Z,101869.84
2019-05-14T20:06:12.056Z,101869.42
2019-05-14T20:08:42.176Z,101881.34
2019-05-14T20:11:12.393Z,101883.19
2019-05-14T20:13:42.691Z,101882.14
2019-05-14T20:16:13.097Z,101881.27
2019-05-14T20:18:45.969Z,101885.36
2019-05-14T20:21:16.478Z,101880.20
2019-05-14T20:23:48.074Z,101874.15
2019-05-14T20:26:18.127Z,101880.91
2019-05-14T20:28:48.407Z,101883.39
2019-05-14T20:31:18.162Z,101879.95
2019-05-14T20:33:48.546Z,101882.69
2019-05-14T20:36:18.806Z,101881.82
2019-05-14T20:38:48.264Z,101877.64
2019-05-14T20:41:18.425Z,101877.87
2019-05-14T20:43:48.106Z,101869.73
2019-05-14T20:46:18.668Z,101872.64
2019-05-14T20:48:48.781Z,101869.22
2019-05-14T20:51:18.697Z,101871.05
2019-05-14T20:53:48.918Z,101871.11
2019-05-14T20:56:19.185Z,101867.69
2019-05-14T20:58:48.246Z,101866.47
2019-05-14T21:01:18.442Z,101865.34
2019-05-14T21:03:48.304Z,101865.47
2019-05-14T21:06:18.786Z,101868.48
2019-05-14T21:08:48.977Z,101862.44
2019-05-14T21:11:19.043Z,101849.25
2019-05-14T21:13:50.031Z,101849.55
2019-05-14T21:16:18.329Z,101849.08
2019-05-14T21:18:48.779Z,101847.63
2019-05-14T21:21:18.516Z,101838.72
2019-05-14T21:23:48.975Z,101844.08
2019-05-14T21:26:19.407Z,101845.53
2019-05-14T21:28:48.698Z,101848.21
2019-05-14T21:31:18.175Z,101845.53
2019-05-14T21:33:48.808Z,101843.03
2019-05-14T21:36:19.411Z,101846.65
2019-05-14T21:38:49.122Z,101842.27
2019-05-14T21:41:20.141Z,101847.63
2019-05-14T21:43:49.281Z,101840.45
2019-05-14T21:46:19.438Z,101835.56
2019-05-14T21:48:48.108Z,101835.56
2019-05-14T21:51:18.036Z,101834.41
2019-05-14T21:53:48.281Z,101835.48
2019-05-14T21:56:21.301Z,101835.19
2019-05-14T21:58:48.120Z,101841.13
2019-05-14T22:01:18.775Z,101844.75
2019-05-14T22:03:48.535Z,101832.91
2019-05-14T22:06:18.278Z,101839.27
2019-05-14T22:08:48.752Z,101846.84
2019-05-14T22:11:18.798Z,101845.43
2019-05-14T22:13:49.620Z,101845.90
2019-05-14T22:16:18.962Z,101849.05
2019-05-14T22:18:48.383Z,101848.65
2019-05-14T22:21:18.379Z,101848.75
2019-05-14T22:23:48.195Z,101848.93
2019-05-14T22:26:18.624Z,101836.75
2019-05-14T22:28:47.894Z,101841.34
2019-05-14T22:31:19.085Z,101842.86
2019-05-14T22:33:46.955Z,101837.67
2019-05-14T22:36:20.966Z,101842.34
2019-05-14T22:38:48.104Z,101840.70
2019-05-14T22:41:18.333Z,101843.19
2019-05-14T22:43:48.761Z,101842.02
2019-05-14T22:46:18.110Z,101839.04
2019-05-14T22:48:51.279Z,101838.34
2019-05-14T22:51:18.321Z,101837.64
2019-05-14T22:53:49.289Z,101834.84
2019-05-14T22:56:17.390Z,101834.64
2019-05-14T22:58:45.951Z,101828.69
2019-05-14T23:01:15.320Z,101832.47
2019-05-14T23:03:44.019Z,101839.43
2019-05-14T23:06:12.585Z,101834.31
2019-05-14T23:08:41.187Z,101837.26
2019-05-14T23:11:09.687Z,101835.78
2019-05-14T23:13:39.162Z,101828.48
2019-05-14T23:16:08.316Z,101832.84
2019-05-14T23:18:38.008Z,101829.15
2019-05-14T23:21:08.816Z,101833.52
2019-05-14T23:23:39.195Z,101832.88
2019-05-14T23:26:08.613Z,101827.39
2019-05-14T23:28:44.586Z,101835.57
2019-05-14T23:31:08.449Z,101831.75
2019-05-14T23:33:38.893Z,101830.74
2019-05-14T23:36:08.788Z,101830.03
2019-05-14T23:38:38.923Z,101833.33
2019-05-14T23:41:08.680Z,101826.13
2019-05-14T23:43:39.182Z,101823.61
2019-05-14T23:46:09.377Z,101816.69
2019-05-14T23:48:39.134Z,101819.15
2019-05-14T23:51:08.332Z,101814.36
2019-05-14T23:53:39.252Z,101814.89
2019-05-14T23:56:08.684Z,101820.80
2019-05-14T23:58:37.501Z,101820.09
